4OMNE LIMF-LIMF

Flight info

Callsign 4OMNE
Flight time 0h 28m
Altitude 6000
Route TOP1A TOP
Aircraft DA40/L-SBDFGRY/S

Departure

Time 2026-05-08 21:12
Airport Turin Airport (LIMF)

Arrival

Time 2026-05-08 21:40
Airport Turin Airport (LIMF)
Time Latitude Longitude Altitude Speed Heading
2026-05-08 20:41 45.19681 7.64332 964 ft 0 kts 217°
2026-05-08 21:06 45.19679 7.64326 964 ft 3 kts 285°
2026-05-08 21:06 45.19698 7.64341 962 ft 6 kts 77°
2026-05-08 21:06 45.19691 7.64452 959 ft 17 kts 100°
2026-05-08 21:07 45.19711 7.64582 960 ft 16 kts 76°
2026-05-08 21:07 45.19721 7.64685 961 ft 5 kts 107°
2026-05-08 21:07 45.19664 7.64702 961 ft 14 kts 181°
2026-05-08 21:07 45.19548 7.64696 959 ft 16 kts 169°
2026-05-08 21:08 45.19518 7.64762 959 ft 2 kts 53°
2026-05-08 21:08 45.19524 7.64771 960 ft 0 kts 22°
2026-05-08 21:10 45.19530 7.64790 957 ft 5 kts 92°
2026-05-08 21:10 45.19525 7.64886 962 ft 9 kts 65°
2026-05-08 21:11 45.19657 7.64940 959 ft 42 kts
2026-05-08 21:11 45.20081 7.64968 1055 ft 68 kts
2026-05-08 21:11 45.20552 7.65032 1275 ft 71 kts
2026-05-08 21:11 45.21042 7.65113 1532 ft 71 kts
2026-05-08 21:12 45.21541 7.65180 1771 ft 73 kts
2026-05-08 21:12 45.22054 7.65248 1999 ft 75 kts
2026-05-08 21:12 45.22577 7.65313 2245 ft 75 kts
2026-05-08 21:12 45.23098 7.65382 2480 ft 75 kts
2026-05-08 21:13 45.23623 7.65446 2721 ft 75 kts
2026-05-08 21:13 45.24147 7.65516 2958 ft 76 kts
2026-05-08 21:13 45.24677 7.65535 3168 ft 77 kts 352°
2026-05-08 21:13 45.25206 7.65456 3393 ft 76 kts 352°
2026-05-08 21:14 45.25720 7.65612 3604 ft 78 kts 36°
2026-05-08 21:14 45.25968 7.66279 3825 ft 80 kts 85°
2026-05-08 21:14 45.25810 7.67017 4038 ft 80 kts 115°
2026-05-08 21:14 45.25531 7.67751 4193 ft 90 kts 120°
2026-05-08 21:15 45.25125 7.68504 4323 ft 101 kts 128°
2026-05-08 21:15 45.24658 7.69284 4448 ft 106 kts 129°
2026-05-08 21:15 45.24173 7.70074 4570 ft 107 kts 130°
2026-05-08 21:15 45.23673 7.70856 4688 ft 107 kts 131°
2026-05-08 21:16 45.23168 7.71645 4864 ft 108 kts 131°
2026-05-08 21:16 45.22668 7.72435 4978 ft 107 kts 130°
2026-05-08 21:16 45.22119 7.73144 5097 ft 107 kts 144°
2026-05-08 21:16 45.21636 7.73928 5220 ft 105 kts 131°
2026-05-08 21:17 45.21035 7.74474 5346 ft 105 kts 158°
2026-05-08 21:17 45.20346 7.74813 5465 ft 104 kts 160°
2026-05-08 21:17 45.19656 7.75126 5597 ft 103 kts 161°
2026-05-08 21:17 45.18971 7.75425 5716 ft 102 kts 161°
2026-05-08 21:18 45.18292 7.75716 5848 ft 101 kts 161°
2026-05-08 21:18 45.17620 7.75994 5969 ft 100 kts 162°
2026-05-08 21:18 45.16925 7.76279 5995 ft 109 kts 162°
2026-05-08 21:18 45.16172 7.76580 5996 ft 116 kts 163°
2026-05-08 21:19 45.15376 7.76900 5996 ft 122 kts 163°
2026-05-08 21:19 45.14551 7.77233 5995 ft 126 kts 163°
2026-05-08 21:19 45.13695 7.77581 5989 ft 130 kts 163°
2026-05-08 21:19 45.12821 7.77937 5994 ft 132 kts 163°
2026-05-08 21:20 45.11937 7.78296 5986 ft 133 kts 163°
2026-05-08 21:20 45.11044 7.78660 5982 ft 134 kts 163°
2026-05-08 21:20 45.10143 7.79026 5985 ft 135 kts 163°
2026-05-08 21:20 45.09239 7.79394 5984 ft 135 kts 163°
2026-05-08 21:21 45.08344 7.79758 5981 ft 136 kts 163°
2026-05-08 21:21 45.07436 7.80127 5982 ft 136 kts 163°
2026-05-08 21:21 45.06523 7.80498 5984 ft 136 kts 163°
2026-05-08 21:21 45.05607 7.80870 5981 ft 137 kts 163°
2026-05-08 21:22 45.04691 7.81242 5985 ft 137 kts 163°
2026-05-08 21:22 45.03777 7.81614 5983 ft 137 kts 163°
2026-05-08 21:22 45.02864 7.81984 5981 ft 136 kts 163°
2026-05-08 21:22 45.01954 7.82354 5981 ft 136 kts 163°
2026-05-08 21:23 45.01040 7.82724 5982 ft 136 kts 163°
2026-05-08 21:23 45.00130 7.83093 5980 ft 136 kts 163°
2026-05-08 21:23 44.99220 7.83462 5981 ft 136 kts 163°
2026-05-08 21:23 44.98309 7.83831 5982 ft 136 kts 163°
2026-05-08 21:24 44.97396 7.84203 5923 ft 140 kts 163°
2026-05-08 21:24 44.96445 7.84585 5768 ft 143 kts 163°
2026-05-08 21:24 44.95478 7.84975 5625 ft 145 kts 163°
2026-05-08 21:24 44.94501 7.85365 5472 ft 146 kts 163°
2026-05-08 21:25 44.93499 7.85557 5315 ft 148 kts 190°
2026-05-08 21:25 44.92658 7.84771 5168 ft 149 kts 236°
2026-05-08 21:25 44.92435 7.83389 5025 ft 149 kts 276°
2026-05-08 21:25 44.92609 7.81947 4878 ft 150 kts 285°
2026-05-08 21:26 44.92941 7.80555 4727 ft 150 kts 291°
2026-05-08 21:26 44.93301 7.79171 4577 ft 150 kts 291°
2026-05-08 21:26 44.93663 7.77791 4424 ft 150 kts 291°
2026-05-08 21:26 44.93899 7.76876 4323 ft 150 kts 290°
2026-05-08 21:27 44.94205 7.75472 4170 ft 150 kts 286°
2026-05-08 21:27 44.94467 7.74048 4020 ft 150 kts 285°
2026-05-08 21:27 44.94720 7.72651 3985 ft 143 kts 285°
2026-05-08 21:27 44.94962 7.71317 3981 ft 138 kts 285°
2026-05-08 21:28 44.95192 7.70012 3981 ft 135 kts 284°
2026-05-08 21:28 44.95407 7.68728 3982 ft 134 kts 284°
2026-05-08 21:28 44.95623 7.67450 3982 ft 133 kts 285°
2026-05-08 21:28 44.96157 7.66431 3978 ft 131 kts 330°
2026-05-08 21:29 44.96985 7.65900 3983 ft 130 kts 336°
2026-05-08 21:29 44.97798 7.65368 3990 ft 130 kts 336°
2026-05-08 21:29 44.98623 7.64833 3981 ft 130 kts 335°
2026-05-08 21:29 44.99442 7.64333 3994 ft 127 kts 336°
2026-05-08 21:30 45.00281 7.63926 3990 ft 127 kts 345°
2026-05-08 21:30 45.01164 7.63844 3993 ft 127 kts 358°
2026-05-08 21:30 45.02052 7.63855 3993 ft 127 kts
2026-05-08 21:30 45.02936 7.63886 3990 ft 127 kts
2026-05-08 21:31 45.03844 7.63932 3882 ft 135 kts
2026-05-08 21:31 45.04808 7.63994 3714 ft 142 kts
2026-05-08 21:31 45.05815 7.64060 3531 ft 147 kts
2026-05-08 21:31 45.06850 7.64126 3339 ft 150 kts
2026-05-08 21:32 45.07902 7.64195 3136 ft 152 kts
2026-05-08 21:32 45.08949 7.64262 2934 ft 153 kts
2026-05-08 21:32 45.10011 7.64330 2730 ft 153 kts
2026-05-08 21:32 45.11078 7.64395 2525 ft 153 kts
2026-05-08 21:33 45.12148 7.64464 2317 ft 154 kts
2026-05-08 21:33 45.13216 7.64531 2112 ft 154 kts
2026-05-08 21:33 45.14284 7.64599 1901 ft 153 kts
2026-05-08 21:33 45.15249 7.64666 1701 ft 121 kts
2026-05-08 21:34 45.15995 7.64708 1573 ft 94 kts 360°
2026-05-08 21:34 45.16577 7.64745 1442 ft 76 kts 358°
2026-05-08 21:34 45.17096 7.64771 1350 ft 75 kts 358°
2026-05-08 21:34 45.17605 7.64796 1243 ft 75 kts 359°
2026-05-08 21:35 45.18128 7.64858 1155 ft 75 kts 358°
2026-05-08 21:35 45.18663 7.64883 1276 ft 74 kts 359°
2026-05-08 21:35 45.19180 7.64920 1478 ft 74 kts 358°
2026-05-08 21:35 45.19689 7.64981 1730 ft 75 kts
2026-05-08 21:36 45.20207 7.65030 1968 ft 74 kts
2026-05-08 21:36 45.20760 7.65247 1999 ft 97 kts 43°
2026-05-08 21:36 45.20890 7.66203 2032 ft 113 kts 112°
2026-05-08 21:36 45.20271 7.66922 2011 ft 125 kts 152°
2026-05-08 21:37 45.19431 7.67217 2030 ft 128 kts 180°
2026-05-08 21:37 45.18507 7.67265 1970 ft 134 kts 179°
2026-05-08 21:37 45.17594 7.67306 2027 ft 132 kts 179°
2026-05-08 21:37 45.16665 7.67375 2025 ft 124 kts 177°
2026-05-08 21:38 45.15804 7.67366 2091 ft 124 kts 198°
2026-05-08 21:38 45.15205 7.66490 1950 ft 132 kts 259°
2026-05-08 21:38 45.15466 7.65398 1839 ft 112 kts 311°
2026-05-08 21:38 45.16044 7.64816 1642 ft 101 kts 339°
2026-05-08 21:39 45.16706 7.64747 1439 ft 95 kts 359°
2026-05-08 21:39 45.17355 7.64801 1297 ft 89 kts 359°
2026-05-08 21:39 45.17931 7.64822 1194 ft 81 kts
2026-05-08 21:39 45.18466 7.64869 1075 ft 71 kts 355°
2026-05-08 21:40 45.18957 7.64892 1005 ft 70 kts 357°
2026-05-08 21:40 45.19402 7.64922 960 ft 52 kts
2026-05-08 21:40 45.19666 7.64935 958 ft 24 kts
2026-05-08 21:41 45.19950 7.64952 964 ft 21 kts
2026-05-08 21:41 45.20087 7.64957 968 ft 16 kts
2026-05-08 21:41 45.20166 7.64930 975 ft 9 kts 320°
2026-05-08 21:41 45.20198 7.64844 978 ft 12 kts 279°
2026-05-08 21:42 45.20195 7.64752 977 ft 0 kts 252°
2026-05-08 21:42 45.20149 7.64705 967 ft 12 kts 195°
2026-05-08 21:42 45.20055 7.64694 967 ft 15 kts 182°
2026-05-08 21:42 45.19938 7.64692 963 ft 18 kts 176°
2026-05-08 21:43 45.19795 7.64695 960 ft 22 kts 171°
2026-05-08 21:43 45.19721 7.64675 959 ft 10 kts 252°
2026-05-08 21:43 45.19687 7.64443 961 ft 10 kts 262°
2026-05-08 21:43 45.19669 7.64409 960 ft 0 kts 184°